HAZ0528 ZPPP-ZSHC
Flight info
| Callsign | HAZ0528 |
|---|---|
| Flight time | 2h 24m |
| Altitude | 37100 |
| Route | NODIB4Q NODIB W137 LPS A581 IDGAG W80 XSH DCT JDZ DCT TXN G204 OREXA OREXA81 |
| Aircraft | A320/M-SDE3FGHIRWY/LB1 |
Departure
| Time | 2026-05-04 12:39 |
|---|---|
| Airport | Kunming Changshui International Airport (ZPPP) |
Arrival
| Time | 2026-05-04 15:03 |
|---|---|
| Airport | Hangzhou Xiaoshan International Airport (ZSHC) |
| Time | Latitude | Longitude | Altitude | Speed | Heading |
|---|---|---|---|---|---|
| 2026-05-04 11:53 | 25.11103 | 102.93634 | 6898 ft | 0 kts | 39° |
| 2026-05-04 12:17 | 25.11101 | 102.93632 | 6897 ft | 2 kts | 39° |
| 2026-05-04 12:18 | 25.11080 | 102.93615 | 6898 ft | 4 kts | 31° |
| 2026-05-04 12:18 | 25.11056 | 102.93602 | 6898 ft | 4 kts | 9° |
| 2026-05-04 12:18 | 25.11034 | 102.93605 | 6898 ft | 3 kts | 311° |
| 2026-05-04 12:18 | 25.11032 | 102.93607 | 6898 ft | 0 kts | 308° |
| 2026-05-04 12:20 | 25.11039 | 102.93598 | 6898 ft | 4 kts | 308° |
| 2026-05-04 12:20 | 25.11063 | 102.93561 | 6898 ft | 8 kts | 308° |
| 2026-05-04 12:21 | 25.11107 | 102.93504 | 6899 ft | 12 kts | 309° |
| 2026-05-04 12:21 | 25.11168 | 102.93421 | 6900 ft | 16 kts | 308° |
| 2026-05-04 12:21 | 25.11243 | 102.93316 | 6901 ft | 19 kts | 308° |
| 2026-05-04 12:21 | 25.11327 | 102.93199 | 6902 ft | 15 kts | 308° |
| 2026-05-04 12:22 | 25.11392 | 102.93108 | 6903 ft | 8 kts | 308° |
| 2026-05-04 12:22 | 25.11438 | 102.93046 | 6903 ft | 12 kts | 318° |
| 2026-05-04 12:22 | 25.11524 | 102.93071 | 6903 ft | 17 kts | 39° |
| 2026-05-04 12:22 | 25.11621 | 102.93153 | 6902 ft | 18 kts | 38° |
| 2026-05-04 12:23 | 25.11732 | 102.93251 | 6902 ft | 23 kts | 38° |
| 2026-05-04 12:23 | 25.11867 | 102.93368 | 6900 ft | 24 kts | 38° |
| 2026-05-04 12:23 | 25.12001 | 102.93484 | 6900 ft | 23 kts | 38° |
| 2026-05-04 12:23 | 25.12140 | 102.93605 | 6900 ft | 25 kts | 38° |
| 2026-05-04 12:24 | 25.12277 | 102.93724 | 6899 ft | 25 kts | 38° |
| 2026-05-04 12:24 | 25.12418 | 102.93847 | 6898 ft | 25 kts | 38° |
| 2026-05-04 12:24 | 25.12566 | 102.93976 | 6898 ft | 24 kts | 38° |
| 2026-05-04 12:24 | 25.12703 | 102.94094 | 6896 ft | 21 kts | 38° |
| 2026-05-04 12:25 | 25.12819 | 102.94195 | 6896 ft | 11 kts | 38° |
| 2026-05-04 12:25 | 25.12872 | 102.94241 | 6896 ft | 2 kts | 38° |
| 2026-05-04 12:27 | 25.12888 | 102.94254 | 6896 ft | 0 kts | 38° |
| 2026-05-04 12:27 | 25.12893 | 102.94259 | 6896 ft | 3 kts | 37° |
| 2026-05-04 12:27 | 25.12908 | 102.94270 | 6896 ft | 0 kts | 36° |
| 2026-05-04 12:28 | 25.12925 | 102.94284 | 6896 ft | 6 kts | 35° |
| 2026-05-04 12:28 | 25.12960 | 102.94263 | 6896 ft | 8 kts | 316° |
| 2026-05-04 12:29 | 25.12977 | 102.94241 | 6896 ft | 0 kts | 306° |
| 2026-05-04 12:31 | 25.12978 | 102.94241 | 6896 ft | 1 kts | 306° |
| 2026-05-04 12:31 | 25.12994 | 102.94216 | 6895 ft | 0 kts | 306° |
| 2026-05-04 12:31 | 25.12995 | 102.94215 | 6895 ft | 0 kts | 306° |
| 2026-05-04 12:36 | 25.12995 | 102.94214 | 6895 ft | 1 kts | 306° |
| 2026-05-04 12:37 | 25.13015 | 102.94185 | 6894 ft | 8 kts | 306° |
| 2026-05-04 12:37 | 25.13009 | 102.94116 | 6894 ft | 12 kts | 215° |
| 2026-05-04 12:37 | 25.12973 | 102.94087 | 6894 ft | 0 kts | 218° |
| 2026-05-04 12:38 | 25.12882 | 102.94008 | 6895 ft | 48 kts | 218° |
| 2026-05-04 12:38 | 25.12439 | 102.93622 | 6900 ft | 111 kts | 218° |
| 2026-05-04 12:38 | 25.11687 | 102.92970 | 6919 ft | 161 kts | 218° |
| 2026-05-04 12:39 | 25.10700 | 102.92123 | 7082 ft | 191 kts | 217° |
| 2026-05-04 12:39 | 25.09708 | 102.91134 | 7881 ft | 192 kts | 229° |
| 2026-05-04 12:39 | 25.08873 | 102.89996 | 8653 ft | 191 kts | 235° |
| 2026-05-04 12:39 | 25.08074 | 102.88774 | 8999 ft | 206 kts | 237° |
| 2026-05-04 12:40 | 25.07200 | 102.87410 | 9157 ft | 230 kts | 237° |
| 2026-05-04 12:40 | 25.06224 | 102.85899 | 9460 ft | 252 kts | 236° |
| 2026-05-04 12:40 | 25.05176 | 102.84305 | 10102 ft | 261 kts | 236° |
| 2026-05-04 12:40 | 25.04095 | 102.82679 | 10799 ft | 265 kts | 236° |
| 2026-05-04 12:41 | 25.02993 | 102.81038 | 11533 ft | 267 kts | 236° |
| 2026-05-04 12:41 | 25.01876 | 102.79387 | 12281 ft | 269 kts | 236° |
| 2026-05-04 12:41 | 25.00752 | 102.77728 | 13012 ft | 272 kts | 237° |
| 2026-05-04 12:41 | 24.99614 | 102.76049 | 13727 ft | 274 kts | 237° |
| 2026-05-04 12:42 | 24.98339 | 102.74458 | 14375 ft | 284 kts | 220° |
| 2026-05-04 12:42 | 24.96468 | 102.73675 | 14965 ft | 300 kts | 188° |
| 2026-05-04 12:42 | 24.94384 | 102.74083 | 15558 ft | 314 kts | 157° |
| 2026-05-04 12:42 | 24.92688 | 102.75623 | 16143 ft | 325 kts | 126° |
| 2026-05-04 12:43 | 24.91641 | 102.77845 | 16719 ft | 330 kts | 111° |
| 2026-05-04 12:43 | 24.90821 | 102.80228 | 17305 ft | 335 kts | 111° |
| 2026-05-04 12:43 | 24.90293 | 102.82796 | 17479 ft | 355 kts | 90° |
| 2026-05-04 12:43 | 24.90665 | 102.85522 | 17613 ft | 369 kts | 66° |
| 2026-05-04 12:44 | 24.92007 | 102.87952 | 17749 ft | 378 kts | 44° |
| 2026-05-04 12:44 | 24.93844 | 102.90120 | 17882 ft | 395 kts | 42° |
| 2026-05-04 12:44 | 24.95772 | 102.92358 | 18013 ft | 411 kts | 42° |
| 2026-05-04 12:44 | 24.97773 | 102.94680 | 18140 ft | 426 kts | 43° |
| 2026-05-04 12:45 | 24.99841 | 102.97096 | 18400 ft | 436 kts | 43° |
| 2026-05-04 12:45 | 25.01930 | 102.99555 | 18793 ft | 441 kts | 43° |
| 2026-05-04 12:45 | 25.04028 | 103.02039 | 19214 ft | 444 kts | 43° |
| 2026-05-04 12:45 | 25.06134 | 103.04540 | 19572 ft | 447 kts | 43° |
| 2026-05-04 12:46 | 25.08253 | 103.07058 | 20048 ft | 448 kts | 44° |
| 2026-05-04 12:46 | 25.10372 | 103.09578 | 20485 ft | 449 kts | 44° |
| 2026-05-04 12:46 | 25.12508 | 103.12108 | 20904 ft | 451 kts | 43° |
| 2026-05-04 12:46 | 25.14627 | 103.14612 | 21252 ft | 455 kts | 43° |
| 2026-05-04 12:47 | 25.16797 | 103.17175 | 21589 ft | 458 kts | 43° |
| 2026-05-04 12:47 | 25.18981 | 103.19759 | 21966 ft | 462 kts | 43° |
| 2026-05-04 12:47 | 25.21174 | 103.22362 | 22309 ft | 464 kts | 43° |
| 2026-05-04 12:47 | 25.23381 | 103.24984 | 22684 ft | 467 kts | 44° |
| 2026-05-04 12:48 | 25.25597 | 103.27622 | 23049 ft | 469 kts | 43° |
| 2026-05-04 12:48 | 25.27819 | 103.30270 | 23393 ft | 472 kts | 44° |
| 2026-05-04 12:48 | 25.30061 | 103.32938 | 23739 ft | 474 kts | 44° |
| 2026-05-04 12:48 | 25.32309 | 103.35610 | 24000 ft | 477 kts | 43° |
| 2026-05-04 12:49 | 25.34574 | 103.38303 | 24290 ft | 479 kts | 43° |
| 2026-05-04 12:49 | 25.36075 | 103.40091 | 24490 ft | 480 kts | 43° |
| 2026-05-04 12:49 | 25.38349 | 103.42799 | 24763 ft | 482 kts | 43° |
| 2026-05-04 12:49 | 25.40632 | 103.45516 | 25034 ft | 484 kts | 43° |
| 2026-05-04 12:50 | 25.42930 | 103.48251 | 25304 ft | 487 kts | 43° |
| 2026-05-04 12:50 | 25.45250 | 103.51011 | 25536 ft | 490 kts | 43° |
| 2026-05-04 12:50 | 25.47569 | 103.53777 | 25767 ft | 493 kts | 43° |
| 2026-05-04 12:50 | 25.49905 | 103.56570 | 26021 ft | 495 kts | 43° |
| 2026-05-04 12:51 | 25.52237 | 103.59385 | 26263 ft | 498 kts | 45° |
| 2026-05-04 12:51 | 25.54336 | 103.62476 | 26506 ft | 506 kts | 53° |
| 2026-05-04 12:51 | 25.56232 | 103.65761 | 26726 ft | 508 kts | 53° |
| 2026-05-04 12:51 | 25.58145 | 103.69063 | 26956 ft | 510 kts | 53° |
| 2026-05-04 12:52 | 25.60068 | 103.72369 | 27184 ft | 512 kts | 53° |
| 2026-05-04 12:52 | 25.62007 | 103.75695 | 27420 ft | 514 kts | 52° |
| 2026-05-04 12:52 | 25.63951 | 103.79024 | 27633 ft | 516 kts | 52° |
| 2026-05-04 12:52 | 25.65898 | 103.82365 | 27966 ft | 516 kts | 52° |
| 2026-05-04 12:53 | 25.67841 | 103.85712 | 28310 ft | 516 kts | 52° |
| 2026-05-04 12:53 | 25.69780 | 103.89064 | 28647 ft | 516 kts | 52° |
| 2026-05-04 12:53 | 25.71715 | 103.92415 | 28992 ft | 516 kts | 52° |
| 2026-05-04 12:53 | 25.73647 | 103.95766 | 29297 ft | 516 kts | 52° |
| 2026-05-04 12:54 | 25.75585 | 103.99125 | 29648 ft | 516 kts | 52° |
| 2026-05-04 12:54 | 25.77519 | 104.02481 | 29987 ft | 516 kts | 52° |
| 2026-05-04 12:54 | 25.79450 | 104.05829 | 30316 ft | 516 kts | 52° |
| 2026-05-04 12:54 | 25.81392 | 104.09182 | 30589 ft | 515 kts | 51° |
| 2026-05-04 12:55 | 25.83340 | 104.12508 | 30869 ft | 514 kts | 51° |
| 2026-05-04 12:55 | 25.85295 | 104.15827 | 31172 ft | 514 kts | 51° |
| 2026-05-04 12:55 | 25.87256 | 104.19141 | 31499 ft | 513 kts | 51° |
| 2026-05-04 12:55 | 25.89210 | 104.22446 | 31821 ft | 512 kts | 51° |
| 2026-05-04 12:56 | 25.91158 | 104.25754 | 32142 ft | 511 kts | 51° |
| 2026-05-04 12:56 | 25.93097 | 104.29059 | 32457 ft | 510 kts | 51° |
| 2026-05-04 12:56 | 25.95028 | 104.32363 | 32773 ft | 510 kts | 51° |
| 2026-05-04 12:56 | 25.96957 | 104.35668 | 33087 ft | 509 kts | 51° |
| 2026-05-04 12:57 | 25.98884 | 104.38971 | 33208 ft | 510 kts | 51° |
| 2026-05-04 12:57 | 26.02976 | 104.45388 | 33233 ft | 504 kts | 41° |
| 2026-05-04 12:58 | 26.08123 | 104.50525 | 33224 ft | 495 kts | 32° |
| 2026-05-04 12:58 | 26.13425 | 104.55425 | 33243 ft | 496 kts | 32° |
| 2026-05-04 12:59 | 26.18719 | 104.60354 | 33226 ft | 496 kts | 32° |
| 2026-05-04 12:59 | 26.24012 | 104.65290 | 33204 ft | 496 kts | 32° |
| 2026-05-04 13:00 | 26.29301 | 104.70219 | 33206 ft | 496 kts | 32° |
| 2026-05-04 13:00 | 26.34660 | 104.75210 | 33214 ft | 508 kts | 33° |
| 2026-05-04 13:01 | 26.40113 | 104.80295 | 33248 ft | 512 kts | 33° |
| 2026-05-04 13:01 | 26.45577 | 104.85402 | 33204 ft | 513 kts | 33° |
| 2026-05-04 13:02 | 26.51048 | 104.90524 | 33209 ft | 513 kts | 33° |
| 2026-05-04 13:02 | 26.56519 | 104.95648 | 33201 ft | 513 kts | 33° |
| 2026-05-04 13:03 | 26.61891 | 105.00836 | 33196 ft | 519 kts | 39° |
| 2026-05-04 13:03 | 26.66137 | 105.07498 | 33198 ft | 537 kts | 59° |
| 2026-05-04 13:04 | 26.69217 | 105.15125 | 33206 ft | 539 kts | 60° |
| 2026-05-04 13:04 | 26.72287 | 105.22770 | 33204 ft | 539 kts | 60° |
| 2026-05-04 13:05 | 26.75356 | 105.30424 | 33203 ft | 539 kts | 60° |
| 2026-05-04 13:05 | 26.78425 | 105.38086 | 33194 ft | 540 kts | 60° |
| 2026-05-04 13:06 | 26.81491 | 105.45764 | 33191 ft | 540 kts | 60° |
| 2026-05-04 13:06 | 26.84554 | 105.53449 | 33199 ft | 541 kts | 60° |
| 2026-05-04 13:07 | 26.87612 | 105.61137 | 33194 ft | 541 kts | 60° |
| 2026-05-04 13:07 | 26.90674 | 105.68836 | 33235 ft | 541 kts | 60° |
| 2026-05-04 13:08 | 26.93737 | 105.76556 | 33209 ft | 542 kts | 60° |
| 2026-05-04 13:08 | 26.96790 | 105.84282 | 33209 ft | 543 kts | 60° |
| 2026-05-04 13:09 | 26.99848 | 105.92014 | 33204 ft | 543 kts | 60° |
| 2026-05-04 13:09 | 27.02905 | 105.99759 | 33215 ft | 543 kts | 60° |
| 2026-05-04 13:10 | 27.06037 | 106.07454 | 33211 ft | 542 kts | 58° |
| 2026-05-04 13:10 | 27.09482 | 106.14966 | 33212 ft | 540 kts | 56° |
| 2026-05-04 13:11 | 27.13023 | 106.22382 | 33232 ft | 539 kts | 56° |
| 2026-05-04 13:11 | 27.16491 | 106.29849 | 33218 ft | 540 kts | 57° |
| 2026-05-04 13:12 | 27.19885 | 106.37375 | 33202 ft | 540 kts | 57° |
| 2026-05-04 13:12 | 27.23267 | 106.44904 | 33208 ft | 539 kts | 57° |
| 2026-05-04 13:13 | 27.26668 | 106.52412 | 33203 ft | 539 kts | 56° |
| 2026-05-04 13:13 | 27.30084 | 106.59916 | 33204 ft | 540 kts | 56° |
| 2026-05-04 13:14 | 27.33493 | 106.67440 | 33208 ft | 539 kts | 57° |
| 2026-05-04 13:14 | 27.36879 | 106.74959 | 33207 ft | 539 kts | 57° |
| 2026-05-04 13:15 | 27.40267 | 106.82499 | 33196 ft | 540 kts | 57° |
| 2026-05-04 13:15 | 27.43643 | 106.90069 | 33201 ft | 540 kts | 57° |
| 2026-05-04 13:16 | 27.47009 | 106.97622 | 33200 ft | 540 kts | 57° |
| 2026-05-04 13:16 | 27.50396 | 107.05178 | 33201 ft | 540 kts | 57° |
| 2026-05-04 13:17 | 27.53817 | 107.12700 | 33196 ft | 540 kts | 56° |
| 2026-05-04 13:17 | 27.57238 | 107.20244 | 33194 ft | 540 kts | 57° |
| 2026-05-04 13:18 | 27.60619 | 107.27747 | 33169 ft | 539 kts | 57° |
| 2026-05-04 13:18 | 27.64036 | 107.35344 | 33177 ft | 540 kts | 57° |
| 2026-05-04 13:19 | 27.67411 | 107.42856 | 33183 ft | 541 kts | 57° |
| 2026-05-04 13:19 | 27.70811 | 107.50444 | 33183 ft | 542 kts | 57° |
| 2026-05-04 13:20 | 27.74213 | 107.58044 | 33181 ft | 542 kts | 57° |
| 2026-05-04 13:20 | 27.77613 | 107.65642 | 33175 ft | 542 kts | 57° |
| 2026-05-04 13:21 | 27.81010 | 107.73236 | 33175 ft | 542 kts | 57° |
| 2026-05-04 13:21 | 27.84407 | 107.80852 | 33167 ft | 543 kts | 56° |
| 2026-05-04 13:22 | 27.87872 | 107.88444 | 33166 ft | 544 kts | 56° |
| 2026-05-04 13:22 | 27.91363 | 107.96024 | 33160 ft | 543 kts | 56° |
| 2026-05-04 13:23 | 27.94827 | 108.03606 | 33153 ft | 543 kts | 56° |
| 2026-05-04 13:23 | 27.98271 | 108.11197 | 33149 ft | 542 kts | 56° |
| 2026-05-04 13:24 | 28.01716 | 108.18793 | 33190 ft | 543 kts | 56° |
| 2026-05-04 13:24 | 28.05169 | 108.26403 | 33168 ft | 544 kts | 56° |
| 2026-05-04 13:25 | 28.10328 | 108.37848 | 33140 ft | 545 kts | 57° |
| 2026-05-04 13:25 | 28.13766 | 108.45494 | 33143 ft | 545 kts | 56° |
| 2026-05-04 13:26 | 28.17216 | 108.53143 | 33141 ft | 545 kts | 56° |
| 2026-05-04 13:26 | 28.20666 | 108.60799 | 33138 ft | 546 kts | 57° |
| 2026-05-04 13:27 | 28.24114 | 108.68491 | 33173 ft | 547 kts | 57° |
| 2026-05-04 13:27 | 28.27531 | 108.76161 | 33155 ft | 549 kts | 57° |
| 2026-05-04 13:28 | 28.30981 | 108.83889 | 33153 ft | 550 kts | 57° |
| 2026-05-04 13:28 | 28.34438 | 108.91626 | 33137 ft | 550 kts | 57° |
| 2026-05-04 13:29 | 28.37903 | 108.99394 | 33134 ft | 551 kts | 57° |
| 2026-05-04 13:29 | 28.41352 | 109.07173 | 33141 ft | 552 kts | 57° |
| 2026-05-04 13:30 | 28.44798 | 109.14970 | 33171 ft | 552 kts | 57° |
| 2026-05-04 13:30 | 28.48236 | 109.22773 | 33144 ft | 553 kts | 57° |
| 2026-05-04 13:31 | 28.51678 | 109.30592 | 33138 ft | 553 kts | 57° |
| 2026-05-04 13:31 | 28.55117 | 109.38428 | 33133 ft | 554 kts | 58° |
| 2026-05-04 13:32 | 28.58457 | 109.46330 | 33135 ft | 558 kts | 63° |
| 2026-05-04 13:32 | 28.61279 | 109.54551 | 33132 ft | 559 kts | 64° |
| 2026-05-04 13:33 | 28.64108 | 109.62810 | 33140 ft | 560 kts | 64° |
| 2026-05-04 13:33 | 28.66950 | 109.71050 | 33143 ft | 559 kts | 63° |
| 2026-05-04 13:34 | 28.69881 | 109.79213 | 33138 ft | 558 kts | 63° |
| 2026-05-04 13:34 | 28.72362 | 109.86010 | 33141 ft | 558 kts | 63° |
| 2026-05-04 13:35 | 28.76785 | 109.98306 | 33148 ft | 559 kts | 63° |
| 2026-05-04 13:36 | 28.79695 | 110.06520 | 33142 ft | 559 kts | 64° |
| 2026-05-04 13:36 | 28.82601 | 110.14737 | 33141 ft | 558 kts | 63° |
| 2026-05-04 13:37 | 28.85516 | 110.22946 | 33172 ft | 558 kts | 64° |
| 2026-05-04 13:37 | 28.88427 | 110.31152 | 33162 ft | 558 kts | 64° |
| 2026-05-04 13:38 | 28.91323 | 110.39345 | 33148 ft | 556 kts | 64° |
| 2026-05-04 13:38 | 28.94209 | 110.47544 | 33136 ft | 556 kts | 64° |
| 2026-05-04 13:39 | 28.97079 | 110.55743 | 33120 ft | 557 kts | 64° |
| 2026-05-04 13:39 | 28.99957 | 110.63961 | 33117 ft | 557 kts | 64° |
| 2026-05-04 13:40 | 29.02833 | 110.72176 | 33161 ft | 558 kts | 64° |
| 2026-05-04 13:40 | 29.05723 | 110.80388 | 33168 ft | 555 kts | 64° |
| 2026-05-04 13:41 | 29.08627 | 110.88552 | 33152 ft | 554 kts | 64° |
| 2026-05-04 13:41 | 29.11511 | 110.96664 | 33143 ft | 554 kts | 64° |
| 2026-05-04 13:42 | 29.15843 | 111.08968 | 33132 ft | 554 kts | 64° |
| 2026-05-04 13:42 | 29.18716 | 111.17151 | 33122 ft | 554 kts | 65° |
| 2026-05-04 13:43 | 29.21585 | 111.25345 | 33113 ft | 555 kts | 65° |
| 2026-05-04 13:43 | 29.24456 | 111.33538 | 33147 ft | 554 kts | 65° |
| 2026-05-04 13:44 | 29.27309 | 111.41709 | 33141 ft | 552 kts | 65° |
| 2026-05-04 13:44 | 29.30146 | 111.49875 | 33138 ft | 551 kts | 65° |
| 2026-05-04 13:45 | 29.32963 | 111.57969 | 33130 ft | 551 kts | 65° |
| 2026-05-04 13:45 | 29.36044 | 111.65963 | 33125 ft | 545 kts | 55° |
| 2026-05-04 13:46 | 29.40148 | 111.73225 | 33123 ft | 542 kts | 52° |
| 2026-05-04 13:46 | 29.44287 | 111.80452 | 33111 ft | 542 kts | 52° |
| 2026-05-04 13:47 | 29.48428 | 111.87694 | 33100 ft | 543 kts | 52° |
| 2026-05-04 13:47 | 29.52576 | 111.94964 | 33101 ft | 545 kts | 52° |
| 2026-05-04 13:48 | 29.56717 | 112.02251 | 33107 ft | 545 kts | 52° |
| 2026-05-04 13:48 | 29.60863 | 112.09554 | 33113 ft | 546 kts | 52° |
| 2026-05-04 13:49 | 29.65006 | 112.16852 | 33135 ft | 544 kts | 52° |
| 2026-05-04 13:49 | 29.69134 | 112.24139 | 33129 ft | 544 kts | 52° |
| 2026-05-04 13:50 | 29.73251 | 112.31431 | 33118 ft | 544 kts | 52° |
| 2026-05-04 13:50 | 29.77356 | 112.38744 | 33114 ft | 544 kts | 53° |
| 2026-05-04 13:51 | 29.81454 | 112.46070 | 33145 ft | 544 kts | 53° |
| 2026-05-04 13:51 | 29.85552 | 112.53405 | 33143 ft | 544 kts | 53° |
| 2026-05-04 13:52 | 29.91686 | 112.64391 | 33132 ft | 543 kts | 53° |
| 2026-05-04 13:53 | 29.95762 | 112.71716 | 33128 ft | 543 kts | 53° |
| 2026-05-04 13:53 | 29.99827 | 112.79046 | 33130 ft | 542 kts | 53° |
| 2026-05-04 13:54 | 30.05919 | 112.90040 | 33140 ft | 542 kts | 53° |
| 2026-05-04 13:55 | 30.12006 | 113.01036 | 33133 ft | 541 kts | 53° |
| 2026-05-04 13:55 | 30.18036 | 113.11976 | 33115 ft | 541 kts | 53° |
| 2026-05-04 13:56 | 30.22065 | 113.19326 | 33137 ft | 542 kts | 53° |
| 2026-05-04 13:57 | 30.28193 | 113.30276 | 33135 ft | 539 kts | 53° |
| 2026-05-04 13:58 | 30.36382 | 113.44802 | 33125 ft | 539 kts | 53° |
| 2026-05-04 13:58 | 30.42472 | 113.55775 | 33141 ft | 540 kts | 53° |
| 2026-05-04 13:59 | 30.46530 | 113.63078 | 33141 ft | 538 kts | 53° |
| 2026-05-04 14:00 | 30.52605 | 113.74004 | 33135 ft | 537 kts | 53° |
| 2026-05-04 14:00 | 30.55897 | 113.81819 | 33120 ft | 544 kts | 72° |
| 2026-05-04 14:00 | 30.56714 | 113.86114 | 33113 ft | 546 kts | 82° |
| 2026-05-04 14:01 | 30.56642 | 113.94890 | 33108 ft | 546 kts | 97° |
| 2026-05-04 14:02 | 30.55408 | 114.08032 | 33097 ft | 547 kts | 98° |
| 2026-05-04 14:02 | 30.54556 | 114.16801 | 33137 ft | 547 kts | 97° |
| 2026-05-04 14:03 | 30.53719 | 114.25562 | 33137 ft | 546 kts | 97° |
| 2026-05-04 14:03 | 30.52874 | 114.34321 | 33132 ft | 546 kts | 98° |
| 2026-05-04 14:04 | 30.51583 | 114.47441 | 33111 ft | 546 kts | 98° |
| 2026-05-04 14:04 | 30.50712 | 114.56201 | 33113 ft | 547 kts | 98° |
| 2026-05-04 14:05 | 30.49396 | 114.69333 | 33122 ft | 547 kts | 98° |
| 2026-05-04 14:06 | 30.48516 | 114.78073 | 33131 ft | 547 kts | 98° |
| 2026-05-04 14:06 | 30.47627 | 114.86838 | 33140 ft | 547 kts | 98° |
| 2026-05-04 14:07 | 30.46729 | 114.95597 | 33147 ft | 547 kts | 98° |
| 2026-05-04 14:07 | 30.45826 | 115.04351 | 33137 ft | 547 kts | 98° |
| 2026-05-04 14:08 | 30.44920 | 115.13120 | 33131 ft | 548 kts | 98° |
| 2026-05-04 14:08 | 30.43919 | 115.21868 | 33127 ft | 547 kts | 104° |
| 2026-05-04 14:09 | 30.39513 | 115.33792 | 33128 ft | 533 kts | 128° |
| 2026-05-04 14:10 | 30.33441 | 115.44604 | 33135 ft | 534 kts | 128° |
| 2026-05-04 14:10 | 30.29425 | 115.51776 | 33140 ft | 535 kts | 128° |
| 2026-05-04 14:11 | 30.25343 | 115.59038 | 33145 ft | 535 kts | 128° |
| 2026-05-04 14:11 | 30.19247 | 115.69823 | 33138 ft | 538 kts | 129° |
| 2026-05-04 14:12 | 30.15153 | 115.77068 | 33146 ft | 539 kts | 129° |
| 2026-05-04 14:13 | 30.09004 | 115.87943 | 33146 ft | 539 kts | 129° |
| 2026-05-04 14:13 | 30.04894 | 115.95175 | 33139 ft | 539 kts | 129° |
| 2026-05-04 14:14 | 30.00777 | 116.02412 | 33138 ft | 540 kts | 130° |
| 2026-05-04 14:14 | 29.94587 | 116.13289 | 33143 ft | 541 kts | 129° |
| 2026-05-04 14:15 | 29.91795 | 116.21443 | 33151 ft | 561 kts | 101° |
| 2026-05-04 14:15 | 29.91031 | 116.30410 | 33134 ft | 563 kts | 98° |
| 2026-05-04 14:16 | 29.89961 | 116.43927 | 33143 ft | 565 kts | 98° |
| 2026-05-04 14:17 | 29.88843 | 116.57468 | 33138 ft | 566 kts | 98° |
| 2026-05-04 14:17 | 29.88093 | 116.66390 | 33015 ft | 555 kts | 98° |
| 2026-05-04 14:18 | 29.87726 | 116.70801 | 32537 ft | 551 kts | 98° |
| 2026-05-04 14:18 | 29.86990 | 116.79590 | 31193 ft | 552 kts | 98° |
| 2026-05-04 14:19 | 29.86368 | 116.86920 | 30393 ft | 553 kts | 98° |
| 2026-05-04 14:19 | 29.85989 | 116.91335 | 29876 ft | 555 kts | 98° |
| 2026-05-04 14:19 | 29.85609 | 116.95752 | 29402 ft | 554 kts | 98° |
| 2026-05-04 14:19 | 29.85229 | 117.00153 | 29238 ft | 552 kts | 98° |
| 2026-05-04 14:20 | 29.84846 | 117.04563 | 29298 ft | 553 kts | 98° |
| 2026-05-04 14:20 | 29.84078 | 117.13375 | 29297 ft | 553 kts | 98° |
| 2026-05-04 14:21 | 29.82923 | 117.26617 | 29295 ft | 555 kts | 98° |
| 2026-05-04 14:21 | 29.82148 | 117.35472 | 29298 ft | 556 kts | 98° |
| 2026-05-04 14:22 | 29.81354 | 117.44332 | 29297 ft | 556 kts | 98° |
| 2026-05-04 14:22 | 29.80951 | 117.48752 | 29043 ft | 556 kts | 98° |
| 2026-05-04 14:22 | 29.80549 | 117.53184 | 28751 ft | 556 kts | 98° |
| 2026-05-04 14:23 | 29.79751 | 117.62003 | 27926 ft | 552 kts | 98° |
| 2026-05-04 14:23 | 29.79352 | 117.66381 | 27510 ft | 550 kts | 98° |
| 2026-05-04 14:23 | 29.78948 | 117.70796 | 27105 ft | 558 kts | 98° |
| 2026-05-04 14:24 | 29.78545 | 117.75206 | 26735 ft | 547 kts | 98° |
| 2026-05-04 14:24 | 29.78154 | 117.79492 | 26331 ft | 531 kts | 98° |
| 2026-05-04 14:24 | 29.77772 | 117.83667 | 25950 ft | 518 kts | 97° |
| 2026-05-04 14:24 | 29.77396 | 117.87753 | 25568 ft | 510 kts | 97° |
| 2026-05-04 14:25 | 29.77023 | 117.91779 | 25195 ft | 503 kts | 97° |
| 2026-05-04 14:25 | 29.76284 | 117.99664 | 23947 ft | 486 kts | 97° |
| 2026-05-04 14:25 | 29.75920 | 118.03497 | 23055 ft | 476 kts | 97° |
| 2026-05-04 14:26 | 29.75561 | 118.07244 | 22137 ft | 468 kts | 97° |
| 2026-05-04 14:26 | 29.75206 | 118.10946 | 21296 ft | 463 kts | 97° |
| 2026-05-04 14:26 | 29.74854 | 118.14615 | 20952 ft | 460 kts | 97° |
| 2026-05-04 14:26 | 29.74503 | 118.18283 | 20771 ft | 460 kts | 97° |
| 2026-05-04 14:27 | 29.74154 | 118.21928 | 20812 ft | 459 kts | 97° |
| 2026-05-04 14:27 | 29.73804 | 118.25583 | 20810 ft | 459 kts | 97° |
| 2026-05-04 14:27 | 29.73467 | 118.29190 | 20813 ft | 459 kts | 97° |
| 2026-05-04 14:27 | 29.73138 | 118.32839 | 20812 ft | 459 kts | 97° |
| 2026-05-04 14:28 | 29.72811 | 118.36543 | 20651 ft | 459 kts | 97° |
| 2026-05-04 14:28 | 29.72495 | 118.40144 | 20396 ft | 446 kts | 97° |
| 2026-05-04 14:28 | 29.72191 | 118.43596 | 20157 ft | 434 kts | 97° |
| 2026-05-04 14:28 | 29.71887 | 118.47003 | 19920 ft | 422 kts | 97° |
| 2026-05-04 14:29 | 29.71277 | 118.53621 | 19447 ft | 413 kts | 97° |
| 2026-05-04 14:29 | 29.70678 | 118.60136 | 18730 ft | 407 kts | 97° |
| 2026-05-04 14:30 | 29.70384 | 118.63370 | 18357 ft | 404 kts | 97° |
| 2026-05-04 14:30 | 29.70091 | 118.66565 | 17932 ft | 401 kts | 96° |
| 2026-05-04 14:30 | 29.69507 | 118.72868 | 17103 ft | 392 kts | 96° |
| 2026-05-04 14:31 | 29.69224 | 118.75964 | 16699 ft | 387 kts | 96° |
| 2026-05-04 14:31 | 29.68672 | 118.82050 | 15902 ft | 378 kts | 96° |
| 2026-05-04 14:32 | 29.68669 | 118.87983 | 15129 ft | 368 kts | 78° |
| 2026-05-04 14:32 | 29.69181 | 118.90845 | 14744 ft | 363 kts | 77° |
| 2026-05-04 14:32 | 29.69693 | 118.93663 | 14374 ft | 359 kts | 77° |
| 2026-05-04 14:32 | 29.70205 | 118.96465 | 13994 ft | 355 kts | 78° |
| 2026-05-04 14:33 | 29.70709 | 118.99224 | 13582 ft | 351 kts | 78° |
| 2026-05-04 14:33 | 29.71208 | 119.01953 | 13173 ft | 347 kts | 78° |
| 2026-05-04 14:33 | 29.71702 | 119.04658 | 12913 ft | 343 kts | 78° |
| 2026-05-04 14:33 | 29.72189 | 119.07339 | 12918 ft | 343 kts | 78° |
| 2026-05-04 14:34 | 29.72676 | 119.10025 | 12921 ft | 344 kts | 77° |
| 2026-05-04 14:34 | 29.73162 | 119.12721 | 12918 ft | 344 kts | 77° |
| 2026-05-04 14:34 | 29.73649 | 119.15425 | 12920 ft | 345 kts | 77° |
| 2026-05-04 14:34 | 29.74137 | 119.18123 | 12919 ft | 345 kts | 78° |
| 2026-05-04 14:35 | 29.74626 | 119.20822 | 12918 ft | 344 kts | 77° |
| 2026-05-04 14:35 | 29.75113 | 119.23518 | 12917 ft | 344 kts | 77° |
| 2026-05-04 14:35 | 29.75598 | 119.26223 | 12916 ft | 344 kts | 78° |
| 2026-05-04 14:35 | 29.76080 | 119.28917 | 12918 ft | 344 kts | 78° |
| 2026-05-04 14:36 | 29.76564 | 119.31616 | 12920 ft | 344 kts | 78° |
| 2026-05-04 14:36 | 29.77050 | 119.34315 | 12913 ft | 344 kts | 78° |
| 2026-05-04 14:36 | 29.77535 | 119.37013 | 12915 ft | 344 kts | 78° |
| 2026-05-04 14:36 | 29.78018 | 119.39710 | 12914 ft | 344 kts | 78° |
| 2026-05-04 14:37 | 29.78500 | 119.42413 | 12918 ft | 344 kts | 78° |
| 2026-05-04 14:37 | 29.78980 | 119.45113 | 12909 ft | 344 kts | 78° |
| 2026-05-04 14:37 | 29.79456 | 119.47810 | 12618 ft | 344 kts | 78° |
| 2026-05-04 14:37 | 29.79934 | 119.50501 | 12266 ft | 340 kts | 78° |
| 2026-05-04 14:38 | 29.80403 | 119.53137 | 11913 ft | 334 kts | 78° |
| 2026-05-04 14:38 | 29.80864 | 119.55742 | 11563 ft | 329 kts | 78° |
| 2026-05-04 14:38 | 29.81316 | 119.58300 | 11220 ft | 324 kts | 77° |
| 2026-05-04 14:38 | 29.81761 | 119.60815 | 10880 ft | 317 kts | 77° |
| 2026-05-04 14:39 | 29.82193 | 119.63244 | 10544 ft | 301 kts | 77° |
| 2026-05-04 14:39 | 29.82606 | 119.65562 | 10215 ft | 292 kts | 77° |
| 2026-05-04 14:39 | 29.83008 | 119.67835 | 9871 ft | 288 kts | 77° |
| 2026-05-04 14:40 | 29.83798 | 119.72331 | 9147 ft | 285 kts | 78° |
| 2026-05-04 14:40 | 29.84189 | 119.74570 | 8914 ft | 285 kts | 78° |
| 2026-05-04 14:40 | 29.84579 | 119.76802 | 8913 ft | 284 kts | 78° |
| 2026-05-04 14:40 | 29.84970 | 119.79030 | 8914 ft | 284 kts | 78° |
| 2026-05-04 14:41 | 29.85357 | 119.81244 | 8906 ft | 276 kts | 78° |
| 2026-05-04 14:41 | 29.85714 | 119.83302 | 8911 ft | 255 kts | 78° |
| 2026-05-04 14:41 | 29.86408 | 119.87276 | 8913 ft | 252 kts | 77° |
| 2026-05-04 14:42 | 29.87100 | 119.91231 | 8912 ft | 252 kts | 77° |
| 2026-05-04 14:42 | 29.87445 | 119.93206 | 8912 ft | 252 kts | 77° |
| 2026-05-04 14:42 | 29.87790 | 119.95182 | 8910 ft | 252 kts | 78° |
| 2026-05-04 14:43 | 29.88134 | 119.97158 | 8908 ft | 252 kts | 77° |
| 2026-05-04 14:43 | 29.88478 | 119.99131 | 8875 ft | 252 kts | 77° |
| 2026-05-04 14:43 | 29.88823 | 120.01109 | 8625 ft | 251 kts | 78° |
| 2026-05-04 14:43 | 29.89164 | 120.03076 | 8369 ft | 250 kts | 78° |
| 2026-05-04 14:44 | 29.89519 | 120.05032 | 8106 ft | 249 kts | 75° |
| 2026-05-04 14:44 | 29.90033 | 120.06923 | 7878 ft | 247 kts | 68° |
| 2026-05-04 14:44 | 29.90728 | 120.08729 | 7623 ft | 246 kts | 62° |
| 2026-05-04 14:44 | 29.91551 | 120.10456 | 7375 ft | 245 kts | 60° |
| 2026-05-04 14:45 | 29.92371 | 120.12178 | 7134 ft | 244 kts | 60° |
| 2026-05-04 14:45 | 29.93182 | 120.13889 | 6958 ft | 243 kts | 60° |
| 2026-05-04 14:45 | 29.93993 | 120.15600 | 6906 ft | 243 kts | 60° |
| 2026-05-04 14:45 | 29.94803 | 120.17314 | 6907 ft | 244 kts | 60° |
| 2026-05-04 14:46 | 29.95614 | 120.19035 | 6908 ft | 244 kts | 60° |
| 2026-05-04 14:46 | 29.96424 | 120.20752 | 6903 ft | 245 kts | 60° |
| 2026-05-04 14:46 | 29.97236 | 120.22473 | 6902 ft | 245 kts | 60° |
| 2026-05-04 14:46 | 29.98050 | 120.24202 | 6902 ft | 245 kts | 60° |
| 2026-05-04 14:47 | 29.98866 | 120.25930 | 6902 ft | 245 kts | 60° |
| 2026-05-04 14:47 | 29.99683 | 120.27653 | 6902 ft | 245 kts | 60° |
| 2026-05-04 14:47 | 30.00481 | 120.29385 | 6902 ft | 245 kts | 61° |
| 2026-05-04 14:47 | 30.01263 | 120.31133 | 6902 ft | 245 kts | 62° |
| 2026-05-04 14:48 | 30.02039 | 120.32888 | 6902 ft | 245 kts | 62° |
| 2026-05-04 14:48 | 30.02812 | 120.34639 | 6902 ft | 245 kts | 62° |
| 2026-05-04 14:48 | 30.03590 | 120.36393 | 6902 ft | 245 kts | 62° |
| 2026-05-04 14:48 | 30.04370 | 120.38151 | 6768 ft | 247 kts | 62° |
| 2026-05-04 14:49 | 30.05135 | 120.39874 | 6532 ft | 244 kts | 62° |
| 2026-05-04 14:49 | 30.05907 | 120.41609 | 6289 ft | 242 kts | 62° |
| 2026-05-04 14:49 | 30.06677 | 120.43341 | 6032 ft | 242 kts | 62° |
| 2026-05-04 14:49 | 30.07443 | 120.45061 | 5903 ft | 242 kts | 62° |
| 2026-05-04 14:50 | 30.08212 | 120.46785 | 5898 ft | 242 kts | 62° |
| 2026-05-04 14:50 | 30.08983 | 120.48515 | 5900 ft | 242 kts | 62° |
| 2026-05-04 14:50 | 30.09750 | 120.50242 | 5901 ft | 242 kts | 62° |
| 2026-05-04 14:50 | 30.10516 | 120.51974 | 5906 ft | 242 kts | 62° |
| 2026-05-04 14:51 | 30.11283 | 120.53707 | 5902 ft | 242 kts | 62° |
| 2026-05-04 14:51 | 30.12050 | 120.55434 | 5899 ft | 242 kts | 62° |
| 2026-05-04 14:51 | 30.12818 | 120.57167 | 5903 ft | 242 kts | 62° |
| 2026-05-04 14:51 | 30.13584 | 120.58896 | 5899 ft | 242 kts | 62° |
| 2026-05-04 14:52 | 30.14350 | 120.60629 | 5894 ft | 242 kts | 62° |
| 2026-05-04 14:52 | 30.15116 | 120.62365 | 5896 ft | 242 kts | 62° |
| 2026-05-04 14:52 | 30.15878 | 120.64096 | 5898 ft | 242 kts | 62° |
| 2026-05-04 14:52 | 30.16645 | 120.65836 | 5705 ft | 242 kts | 62° |
| 2026-05-04 14:53 | 30.17398 | 120.67548 | 5455 ft | 236 kts | 63° |
| 2026-05-04 14:53 | 30.18136 | 120.69226 | 5208 ft | 232 kts | 63° |
| 2026-05-04 14:53 | 30.18862 | 120.70874 | 4962 ft | 228 kts | 63° |
| 2026-05-04 14:53 | 30.19578 | 120.72496 | 4714 ft | 225 kts | 63° |
| 2026-05-04 14:54 | 30.20285 | 120.74100 | 4463 ft | 223 kts | 63° |
| 2026-05-04 14:54 | 30.21077 | 120.75600 | 4209 ft | 221 kts | 45° |
| 2026-05-04 14:54 | 30.22403 | 120.76426 | 3959 ft | 220 kts | 8° |
| 2026-05-04 14:54 | 30.23911 | 120.76176 | 3713 ft | 219 kts | 333° |
| 2026-05-04 14:55 | 30.25252 | 120.75383 | 3476 ft | 220 kts | 332° |
| 2026-05-04 14:55 | 30.26638 | 120.74569 | 3223 ft | 221 kts | 332° |
| 2026-05-04 14:55 | 30.27989 | 120.73783 | 2973 ft | 221 kts | 331° |
| 2026-05-04 14:55 | 30.29361 | 120.72984 | 2725 ft | 220 kts | 331° |
| 2026-05-04 14:56 | 30.30726 | 120.72187 | 2476 ft | 220 kts | 331° |
| 2026-05-04 14:56 | 30.32096 | 120.71387 | 2232 ft | 220 kts | 330° |
| 2026-05-04 14:56 | 30.33383 | 120.70472 | 2042 ft | 215 kts | 308° |
| 2026-05-04 14:56 | 30.33913 | 120.68956 | 1990 ft | 203 kts | 262° |
| 2026-05-04 14:57 | 30.33527 | 120.67475 | 2017 ft | 185 kts | 242° |
| 2026-05-04 14:57 | 30.32998 | 120.66201 | 2002 ft | 167 kts | 240° |
| 2026-05-04 14:57 | 30.32499 | 120.65053 | 1990 ft | 155 kts | 239° |
| 2026-05-04 14:57 | 30.32006 | 120.63934 | 1999 ft | 157 kts | 239° |
| 2026-05-04 14:58 | 30.31510 | 120.62808 | 2015 ft | 157 kts | 239° |
| 2026-05-04 14:58 | 30.31015 | 120.61684 | 2002 ft | 157 kts | 239° |
| 2026-05-04 14:58 | 30.30518 | 120.60558 | 2004 ft | 157 kts | 239° |
| 2026-05-04 14:58 | 30.30189 | 120.59812 | 2016 ft | 157 kts | 239° |
| 2026-05-04 14:59 | 30.29542 | 120.58344 | 2015 ft | 144 kts | 239° |
| 2026-05-04 14:59 | 30.29101 | 120.57343 | 2024 ft | 135 kts | 239° |
| 2026-05-04 14:59 | 30.28267 | 120.55457 | 1918 ft | 130 kts | 239° |
| 2026-05-04 15:00 | 30.27857 | 120.54529 | 1777 ft | 129 kts | 239° |
| 2026-05-04 15:00 | 30.27449 | 120.53606 | 1626 ft | 129 kts | 239° |
| 2026-05-04 15:00 | 30.27039 | 120.52679 | 1457 ft | 129 kts | 239° |
| 2026-05-04 15:01 | 30.26218 | 120.50822 | 1130 ft | 131 kts | 239° |
| 2026-05-04 15:01 | 30.25802 | 120.49883 | 954 ft | 132 kts | 239° |
| 2026-05-04 15:01 | 30.25382 | 120.48933 | 786 ft | 134 kts | 240° |
| 2026-05-04 15:01 | 30.24957 | 120.47972 | 621 ft | 135 kts | 241° |
| 2026-05-04 15:02 | 30.24527 | 120.47001 | 428 ft | 136 kts | 242° |
| 2026-05-04 15:02 | 30.24096 | 120.46029 | 252 ft | 136 kts | 242° |
| 2026-05-04 15:02 | 30.23665 | 120.45056 | 65 ft | 136 kts | 242° |
| 2026-05-04 15:02 | 30.23270 | 120.44160 | 31 ft | 104 kts | 243° |
| 2026-05-04 15:03 | 30.23018 | 120.43590 | 35 ft | 55 kts | 242° |
| 2026-05-04 15:03 | 30.22903 | 120.43322 | 34 ft | 30 kts | 250° |
| 2026-05-04 15:03 | 30.22875 | 120.43083 | 33 ft | 30 kts | 270° |
| 2026-05-04 15:03 | 30.22891 | 120.42992 | 31 ft | 4 kts | 301° |
| 2026-05-04 15:04 | 30.22921 | 120.42967 | 32 ft | 6 kts | 328° |
| 2026-05-04 15:04 | 30.22936 | 120.42959 | 32 ft | 2 kts | 336° |
| 2026-05-04 15:04 | 30.22951 | 120.42981 | 32 ft | 6 kts | 71° |
| 2026-05-04 15:04 | 30.22963 | 120.43024 | 32 ft | 11 kts | 71° |
| 2026-05-04 15:05 | 30.23024 | 120.43168 | 32 ft | 19 kts | 63° |
| 2026-05-04 15:05 | 30.23091 | 120.43319 | 33 ft | 22 kts | 62° |
| 2026-05-04 15:05 | 30.23164 | 120.43484 | 32 ft | 24 kts | 63° |
| 2026-05-04 15:05 | 30.23241 | 120.43660 | 32 ft | 27 kts | 63° |
| 2026-05-04 15:06 | 30.23283 | 120.43753 | 32 ft | 14 kts | 63° |
| 2026-05-04 15:06 | 30.23337 | 120.43876 | 32 ft | 20 kts | 63° |
| 2026-05-04 15:06 | 30.23376 | 120.43964 | 32 ft | 9 kts | 60° |
| 2026-05-04 15:07 | 30.23556 | 120.43917 | 30 ft | 21 kts | 333° |
| 2026-05-04 15:07 | 30.23697 | 120.43835 | 32 ft | 25 kts | 333° |
| 2026-05-04 15:07 | 30.23863 | 120.43738 | 31 ft | 26 kts | 333° |
| 2026-05-04 15:07 | 30.24025 | 120.43644 | 32 ft | 26 kts | 333° |
| 2026-05-04 15:08 | 30.24174 | 120.43555 | 32 ft | 23 kts | 333° |
| 2026-05-04 15:08 | 30.24314 | 120.43473 | 32 ft | 22 kts | 333° |
| 2026-05-04 15:08 | 30.24444 | 120.43396 | 32 ft | 19 kts | 333° |
| 2026-05-04 15:08 | 30.24527 | 120.43336 | 32 ft | 13 kts | 299° |
| 2026-05-04 15:09 | 30.24508 | 120.43246 | 32 ft | 11 kts | 245° |
| 2026-05-04 15:09 | 30.24474 | 120.43167 | 32 ft | 10 kts | 244° |
| 2026-05-04 15:09 | 30.24443 | 120.43098 | 32 ft | 9 kts | 242° |
| 2026-05-04 15:10 | 30.24347 | 120.42880 | 32 ft | 22 kts | 243° |
| 2026-05-04 15:10 | 30.24279 | 120.42739 | 32 ft | 23 kts | 243° |
| 2026-05-04 15:10 | 30.24180 | 120.42520 | 31 ft | 10 kts | 242° |
| 2026-05-04 15:11 | 30.24117 | 120.42504 | 32 ft | 7 kts | 165° |
| 2026-05-04 15:11 | 30.24087 | 120.42518 | 32 ft | 3 kts | 158° |
| 2026-05-04 15:11 | 30.24047 | 120.42529 | 32 ft | 9 kts | 190° |
| 2026-05-04 15:11 | 30.24020 | 120.42503 | 32 ft | 2 kts | 206° |
| 2026-05-04 15:12 | 30.24011 | 120.42497 | 32 ft | 0 kts | 214° |
| 2026-05-04 15:12 | 30.24007 | 120.42493 | 32 ft | 2 kts | 217° |
| 2026-05-04 15:12 | 30.24005 | 120.42491 | 32 ft | 0 kts | 217° |